createdAt,value
2019-01-11T00:02:14.666Z,4.80
2019-01-11T00:04:46.570Z,5.20
2019-01-11T00:07:15.463Z,4.50
2019-01-11T00:09:44.388Z,4.80
2019-01-11T00:12:14.440Z,4.83
2019-01-11T00:14:44.533Z,5.05
2019-01-11T00:17:14.634Z,5.90
2019-01-11T00:19:43.843Z,5.65
2019-01-11T00:22:12.825Z,5.90
2019-01-11T00:24:41.731Z,5.10
2019-01-11T00:27:10.867Z,5.75
2019-01-11T00:29:39.928Z,6.17
2019-01-11T00:32:08.757Z,5.90
2019-01-11T00:34:37.738Z,5.45
2019-01-11T00:37:06.850Z,6.08
2019-01-11T00:39:36.168Z,6.40
2019-01-11T00:42:05.525Z,6.00
2019-01-11T00:44:34.640Z,5.70
2019-01-11T00:47:03.618Z,5.72
2019-01-11T00:49:32.416Z,6.03
2019-01-11T00:52:01.368Z,6.70
2019-01-11T00:54:30.284Z,5.33
2019-01-11T00:57:01.275Z,7.00
2019-01-11T00:59:30.083Z,6.55
2019-01-11T01:01:58.955Z,6.17
2019-01-11T01:04:28.068Z,7.00
2019-01-11T01:06:56.971Z,5.12
2019-01-11T01:09:25.916Z,6.75
2019-01-11T01:11:54.971Z,7.05
2019-01-11T01:14:23.851Z,7.15
2019-01-11T01:16:52.647Z,6.40
2019-01-11T01:19:21.479Z,6.72
2019-01-11T01:21:50.279Z,7.30
2019-01-11T01:24:19.227Z,7.25
2019-01-11T01:26:49.477Z,8.00
2019-01-11T01:29:18.506Z,7.75
2019-01-11T01:31:47.438Z,7.10
2019-01-11T01:34:16.302Z,7.60
2019-01-11T01:36:45.457Z,7.40
2019-01-11T01:39:14.436Z,7.72
2019-01-11T01:41:43.607Z,7.50
2019-01-11T01:44:12.572Z,7.78
2019-01-11T01:46:41.555Z,8.18
2019-01-11T01:49:10.490Z,7.80
2019-01-11T01:51:39.373Z,8.05
2019-01-11T01:54:08.410Z,8.95
2019-01-11T01:56:38.829Z,9.53
2019-01-11T01:59:08.030Z,9.00
2019-01-11T02:01:36.942Z,9.45
2019-01-11T02:04:05.804Z,9.70
2019-01-11T02:06:34.681Z,9.65
2019-01-11T02:09:06.101Z,8.30
2019-01-11T02:11:34.917Z,8.70
2019-01-11T02:14:03.762Z,9.80
2019-01-11T02:16:32.763Z,8.95
2019-01-11T02:19:01.630Z,8.88
2019-01-11T02:21:30.582Z,10.70
2019-01-11T02:23:59.511Z,10.98
2019-01-11T02:26:28.317Z,10.68
2019-01-11T02:28:57.296Z,11.22
2019-01-11T02:31:26.257Z,10.40
2019-01-11T02:33:55.163Z,12.33
2019-01-11T02:36:23.954Z,11.38
2019-01-11T02:38:52.760Z,11.12
2019-01-11T02:41:21.624Z,12.63
2019-01-11T02:43:50.478Z,13.45
2019-01-11T02:46:19.411Z,12.55
2019-01-11T02:48:48.291Z,13.13
2019-01-11T02:51:17.154Z,10.50
2019-01-11T02:53:46.208Z,13.95
2019-01-11T02:56:15.001Z,14.80
2019-01-11T02:58:43.933Z,15.85
2019-01-11T03:01:12.701Z,15.08
2019-01-11T03:03:41.590Z,14.15
2019-01-11T03:06:10.499Z,14.13
2019-01-11T03:08:39.287Z,14.75
2019-01-11T03:11:08.070Z,14.60
2019-01-11T03:13:36.948Z,15.28
2019-01-11T03:16:05.837Z,15.80
2019-01-11T03:18:34.770Z,16.20
2019-01-11T03:21:03.653Z,18.62
2019-01-11T03:23:32.668Z,15.00
2019-01-11T03:26:01.550Z,18.10
2019-01-11T03:28:30.500Z,19.42
2019-01-11T03:31:03.085Z,20.57
2019-01-11T03:33:32.201Z,18.12
2019-01-11T03:36:00.988Z,18.93
2019-01-11T03:38:29.955Z,19.90
2019-01-11T03:40:58.841Z,19.77
2019-01-11T03:43:27.704Z,19.27
2019-01-11T03:45:56.503Z,19.50
2019-01-11T03:48:25.476Z,19.52
2019-01-11T03:50:54.411Z,19.82
2019-01-11T03:53:23.252Z,21.20
2019-01-11T03:55:52.165Z,21.80
2019-01-11T03:58:21.040Z,21.00
2019-01-11T04:00:49.876Z,18.00
2019-01-11T04:03:18.721Z,16.75
2019-01-11T04:05:47.521Z,20.57
2019-01-11T04:08:16.419Z,17.62
2019-01-11T04:10:45.286Z,20.02
2019-01-11T04:13:14.989Z,19.87
2019-01-11T04:15:43.936Z,20.12
2019-01-11T04:18:38.141Z,20.40
2019-01-11T04:21:07.120Z,20.35
2019-01-11T04:23:36.048Z,20.85
2019-01-11T04:26:05.051Z,21.12
2019-01-11T04:28:33.857Z,19.75
2019-01-11T04:31:02.861Z,21.83
2019-01-11T04:33:32.092Z,20.20
2019-01-11T04:36:00.877Z,21.40
2019-01-11T04:38:29.776Z,20.80
2019-01-11T04:40:58.585Z,19.37
2019-01-11T04:43:27.419Z,19.73
2019-01-11T04:45:56.210Z,20.02
2019-01-11T04:48:25.154Z,19.50
2019-01-11T04:50:54.097Z,18.23
2019-01-11T04:53:22.940Z,21.68
2019-01-11T04:55:51.979Z,19.32
2019-01-11T04:58:20.875Z,21.42
2019-01-11T05:00:49.850Z,19.65
2019-01-11T05:03:18.701Z,20.20
2019-01-11T05:05:47.682Z,19.80
2019-01-11T05:08:16.595Z,20.50
2019-01-11T05:10:45.491Z,17.85
2019-01-11T05:13:32.842Z,19.05
2019-01-11T05:16:01.740Z,19.15
2019-01-11T05:18:30.635Z,17.70
2019-01-11T05:20:59.571Z,17.92
2019-01-11T05:23:28.672Z,20.27
2019-01-11T05:25:57.672Z,19.75
2019-01-11T05:28:26.895Z,20.10
2019-01-11T05:30:56.488Z,19.98
2019-01-11T05:33:25.498Z,17.48
2019-01-11T05:35:54.445Z,20.35
2019-01-11T05:38:23.327Z,19.87
2019-01-11T05:40:52.305Z,17.50
2019-01-11T05:43:21.083Z,19.20
2019-01-11T05:45:56.268Z,14.43
2019-01-11T05:48:25.118Z,18.17
2019-01-11T05:50:53.982Z,16.85
2019-01-11T05:53:22.798Z,16.85
2019-01-11T05:55:52.949Z,19.02
2019-01-11T05:58:38.799Z,17.20
2019-01-11T06:01:08.014Z,20.80
2019-01-11T06:03:36.934Z,20.10
2019-01-11T06:06:06.401Z,19.42
2019-01-11T06:08:35.631Z,21.33
2019-01-11T06:11:05.020Z,19.67
2019-01-11T06:13:33.950Z,20.90
2019-01-11T06:16:02.968Z,19.17
2019-01-11T06:18:31.923Z,19.73
2019-01-11T06:21:00.889Z,18.85
2019-01-11T06:23:29.774Z,20.70
2019-01-11T06:25:59.056Z,20.17
2019-01-11T06:28:28.152Z,19.98
2019-01-11T06:30:59.047Z,21.00
2019-01-11T06:33:31.504Z,21.00
2019-01-11T06:36:00.349Z,19.15
2019-01-11T06:38:30.825Z,18.92
2019-01-11T06:40:59.788Z,18.10
2019-01-11T06:43:28.691Z,18.30
2019-01-11T06:45:57.835Z,19.35
2019-01-11T06:48:40.858Z,19.35
2019-01-11T06:51:10.056Z,18.67
2019-01-11T06:53:38.964Z,18.45
2019-01-11T06:56:07.984Z,16.95
2019-01-11T06:58:39.292Z,18.27
2019-01-11T07:01:10.034Z,18.05
2019-01-11T07:03:38.876Z,19.87
2019-01-11T07:06:07.796Z,20.75
2019-01-11T07:08:36.657Z,19.67
2019-01-11T07:11:05.772Z,16.12
2019-01-11T07:13:34.797Z,16.73
2019-01-11T07:16:03.751Z,17.70
2019-01-11T07:18:33.052Z,17.75
2019-01-11T07:21:01.915Z,14.65
2019-01-11T07:23:30.847Z,16.35
2019-01-11T07:25:59.683Z,13.98
2019-01-11T07:28:28.920Z,16.57
2019-01-11T07:31:04.161Z,17.33
2019-01-11T07:33:33.195Z,16.42
2019-01-11T07:36:24.327Z,15.70
2019-01-11T07:38:53.504Z,16.70
2019-01-11T07:41:22.616Z,13.25
2019-01-11T07:43:51.551Z,14.37
2019-01-11T07:46:20.473Z,16.12
2019-01-11T07:48:49.437Z,15.00
2019-01-11T07:51:18.439Z,15.05
2019-01-11T07:53:47.375Z,14.30
2019-01-11T07:56:16.168Z,14.25
2019-01-11T07:58:45.180Z,13.98
2019-01-11T08:01:14.047Z,13.40
2019-01-11T08:03:43.541Z,14.20
2019-01-11T08:06:12.841Z,15.00
2019-01-11T08:08:41.803Z,12.80
2019-01-11T08:11:10.778Z,13.62
2019-01-11T08:13:39.808Z,12.20
2019-01-11T08:16:09.232Z,13.17
2019-01-11T08:18:38.107Z,12.70
2019-01-11T08:21:07.371Z,12.73
2019-01-11T08:23:36.529Z,12.30
2019-01-11T08:26:08.216Z,13.10
2019-01-11T08:28:39.426Z,12.53
2019-01-11T08:31:08.372Z,11.73
2019-01-11T08:37:19.640Z,10.72
2019-01-11T08:39:48.558Z,11.50
2019-01-11T08:42:17.529Z,12.45
2019-01-11T08:44:46.342Z,13.25
2019-01-11T08:47:15.272Z,12.65
2019-01-11T08:49:44.241Z,11.50
2019-01-11T08:52:13.112Z,11.05
2019-01-11T08:54:41.911Z,9.90
2019-01-11T08:57:10.768Z,11.70
2019-01-11T08:59:41.906Z,11.20
2019-01-11T09:02:11.006Z,11.85
2019-01-11T09:04:39.814Z,9.10
2019-01-11T09:07:08.726Z,9.50
2019-01-11T09:09:37.555Z,10.18
2019-01-11T09:12:06.419Z,10.88
2019-01-11T09:14:54.329Z,11.20
2019-01-11T09:17:23.409Z,12.70
2019-01-11T09:19:52.256Z,11.03
2019-01-11T09:22:21.083Z,11.50
2019-01-11T09:24:49.886Z,11.28
2019-01-11T09:27:18.882Z,10.20
2019-01-11T09:29:48.835Z,11.95
2019-01-11T09:32:17.634Z,12.45
2019-01-11T09:34:46.519Z,11.90
2019-01-11T09:37:15.407Z,12.45
2019-01-11T09:39:44.203Z,11.88
2019-01-11T09:42:14.303Z,10.80
2019-01-11T09:44:43.210Z,11.50
2019-01-11T09:47:12.000Z,11.08
2019-01-11T09:49:40.864Z,11.15
2019-01-11T09:52:09.863Z,12.60
2019-01-11T09:54:38.682Z,10.15
2019-01-11T09:57:07.573Z,11.55
2019-01-11T09:59:36.621Z,12.68
2019-01-11T10:02:36.862Z,12.03
2019-01-11T10:05:08.255Z,12.53
2019-01-11T10:07:37.204Z,13.15
2019-01-11T10:10:08.668Z,10.80
2019-01-11T10:12:37.621Z,12.20
2019-01-11T10:15:07.492Z,12.20
2019-01-11T10:17:36.379Z,13.98
2019-01-11T10:20:06.699Z,13.62
2019-01-11T10:22:35.756Z,13.40
2019-01-11T10:25:05.972Z,14.03
2019-01-11T10:27:34.979Z,11.83
2019-01-11T10:30:05.692Z,12.80
2019-01-11T10:32:34.535Z,13.98
2019-01-11T10:35:03.435Z,15.40
2019-01-11T10:37:33.232Z,16.00
2019-01-11T10:40:02.338Z,14.93
2019-01-11T10:42:31.244Z,13.90
2019-01-11T10:45:00.872Z,15.70
2019-01-11T10:47:29.727Z,16.30
2019-01-11T10:49:58.554Z,13.70
2019-01-11T10:52:27.447Z,13.62
2019-01-11T10:54:56.282Z,14.00
2019-01-11T10:57:25.149Z,15.73
2019-01-11T10:59:53.965Z,14.63
2019-01-11T11:02:22.771Z,17.57
2019-01-11T11:04:51.662Z,15.40
2019-01-11T11:07:20.432Z,16.32
2019-01-11T11:09:49.264Z,14.70
2019-01-11T11:12:18.121Z,14.90
2019-01-11T11:14:50.053Z,15.75
2019-01-11T11:17:18.840Z,15.90
2019-01-11T11:19:47.627Z,11.38
2019-01-11T11:22:16.752Z,13.50
2019-01-11T11:24:45.789Z,12.10
2019-01-11T11:27:14.691Z,12.85
2019-01-11T11:29:43.524Z,13.10
2019-01-11T11:32:13.436Z,12.75
2019-01-11T11:34:44.957Z,14.55
2019-01-11T11:37:17.798Z,12.55
2019-01-11T11:39:46.787Z,9.75
2019-01-11T11:42:16.934Z,11.43
2019-01-11T11:44:45.928Z,11.45
2019-01-11T11:47:14.940Z,11.78
2019-01-11T11:49:43.724Z,11.20
2019-01-11T11:52:12.644Z,12.63
2019-01-11T11:54:41.547Z,12.85
2019-01-11T11:57:10.455Z,11.93
2019-01-11T11:59:39.341Z,10.55
2019-01-11T12:02:08.391Z,11.83
2019-01-11T12:04:37.264Z,11.83
2019-01-11T12:07:07.685Z,11.80
2019-01-11T12:09:36.875Z,11.73
2019-01-11T12:12:05.897Z,11.03
2019-01-11T12:14:34.962Z,10.13
2019-01-11T12:17:03.986Z,11.83
2019-01-11T12:19:33.043Z,11.10
2019-01-11T12:22:01.953Z,11.50
2019-01-11T12:27:11.864Z,10.55
2019-01-11T12:29:40.719Z,7.55
2019-01-11T12:32:09.496Z,9.08
2019-01-11T12:34:38.322Z,9.48
2019-01-11T12:37:07.126Z,10.20
2019-01-11T12:39:35.964Z,10.80
2019-01-11T12:42:04.902Z,10.65
2019-01-11T12:44:33.684Z,7.30
2019-01-11T12:47:02.525Z,9.40
2019-01-11T12:49:31.402Z,10.60
2019-01-11T12:52:00.292Z,13.05
2019-01-11T12:54:29.210Z,7.00
2019-01-11T12:56:58.023Z,9.27
2019-01-11T12:59:26.807Z,7.50
2019-01-11T13:01:55.784Z,10.08
2019-01-11T13:04:24.618Z,10.43
2019-01-11T13:06:53.579Z,10.32
2019-01-11T13:09:22.593Z,8.80
2019-01-11T13:11:51.502Z,9.83
2019-01-11T13:14:20.358Z,10.90
2019-01-11T13:16:49.317Z,9.85
2019-01-11T13:19:20.329Z,11.48
2019-01-11T13:21:51.636Z,10.63
2019-01-11T13:24:24.529Z,10.15
2019-01-11T13:26:53.447Z,9.25
2019-01-11T13:29:22.385Z,11.83
2019-01-11T13:31:51.178Z,11.10
2019-01-11T13:34:20.103Z,11.08
2019-01-11T13:36:53.853Z,9.03
2019-01-11T13:39:20.128Z,9.55
2019-01-11T13:41:49.148Z,10.00
2019-01-11T13:44:18.083Z,10.30
2019-01-11T13:46:46.908Z,9.25
2019-01-11T13:49:15.964Z,9.70
2019-01-11T13:51:44.932Z,8.50
2019-01-11T13:54:13.866Z,8.83
2019-01-11T13:56:42.796Z,9.15
2019-01-11T13:59:11.668Z,9.40
2019-01-11T14:01:40.525Z,8.78
2019-01-11T14:04:09.461Z,8.28
2019-01-11T14:06:38.693Z,10.15
2019-01-11T14:09:08.980Z,7.60
2019-01-11T14:11:38.107Z,9.10
2019-01-11T14:14:06.999Z,8.33
2019-01-11T14:16:36.178Z,7.05
2019-01-11T14:19:05.091Z,8.00
2019-01-11T14:21:33.972Z,6.65
2019-01-11T14:24:03.023Z,8.20
2019-01-11T14:26:32.001Z,7.97
2019-01-11T14:29:00.935Z,7.97
2019-01-11T14:31:33.358Z,7.15
2019-01-11T14:34:02.335Z,7.80
2019-01-11T14:36:31.302Z,8.15
2019-01-11T14:39:07.429Z,7.33
2019-01-11T14:41:38.414Z,6.40
2019-01-11T14:44:07.443Z,6.95
2019-01-11T14:46:36.601Z,6.05
2019-01-11T14:49:05.614Z,7.80
2019-01-11T14:51:34.638Z,7.15
2019-01-11T14:54:03.641Z,7.55
2019-01-11T14:56:32.493Z,7.20
2019-01-11T14:59:01.359Z,7.70
2019-01-11T15:01:30.223Z,8.30
2019-01-11T15:03:59.129Z,8.13
2019-01-11T15:06:28.060Z,8.23
2019-01-11T15:08:57.000Z,7.30
2019-01-11T15:11:25.857Z,8.73
2019-01-11T15:13:54.678Z,8.18
2019-01-11T15:16:23.546Z,8.20
2019-01-11T15:18:52.424Z,8.97
2019-01-11T15:21:21.324Z,9.48
2019-01-11T15:23:50.123Z,9.33
2019-01-11T15:26:19.006Z,9.70
2019-01-11T15:28:47.867Z,7.92
2019-01-11T15:31:16.711Z,9.33
2019-01-11T15:33:45.627Z,9.70
2019-01-11T15:36:20.192Z,9.15
2019-01-11T15:38:49.321Z,9.70
2019-01-11T15:41:18.239Z,10.05
2019-01-11T15:43:47.234Z,11.45
2019-01-11T15:46:16.291Z,9.93
2019-01-11T15:48:49.728Z,9.48
2019-01-11T15:51:21.650Z,10.35
2019-01-11T15:53:51.402Z,11.15
2019-01-11T15:56:30.798Z,8.40
2019-01-11T15:59:01.979Z,9.50
2019-01-11T16:01:33.339Z,9.23
2019-01-11T16:04:09.096Z,9.85
2019-01-11T16:06:40.551Z,8.10
2019-01-11T16:10:19.753Z,8.55
2019-01-11T16:13:26.671Z,8.40
2019-01-11T16:16:20.431Z,8.85
2019-01-11T16:18:50.266Z,7.15
2019-01-11T16:21:19.345Z,9.65
2019-01-11T16:23:48.233Z,9.10
2019-01-11T16:26:17.087Z,8.88
2019-01-11T16:28:46.136Z,8.45
2019-01-11T16:31:15.117Z,8.70
2019-01-11T16:33:45.920Z,9.38
2019-01-11T16:36:14.772Z,8.85
2019-01-11T16:38:43.677Z,9.43
2019-01-11T16:41:12.966Z,9.68
2019-01-11T16:43:41.923Z,11.25
2019-01-11T16:46:10.969Z,9.90
2019-01-11T16:48:39.915Z,10.93
2019-01-11T16:51:08.899Z,11.03
2019-01-11T16:53:37.751Z,10.53
2019-01-11T16:56:06.630Z,11.95
2019-01-11T16:58:35.623Z,12.50
2019-01-11T17:01:04.744Z,10.95
2019-01-11T17:03:33.669Z,11.78
2019-01-11T17:06:02.604Z,12.23
2019-01-11T17:08:31.694Z,10.82
2019-01-11T17:11:00.593Z,11.17
2019-01-11T17:13:29.571Z,12.70
2019-01-11T17:15:58.542Z,12.43
2019-01-11T17:18:27.430Z,12.50
2019-01-11T17:20:56.408Z,11.55
2019-01-11T17:23:25.511Z,10.98
2019-01-11T17:25:54.441Z,10.82
2019-01-11T17:28:23.367Z,10.05
2019-01-11T17:30:52.451Z,11.30
2019-01-11T17:33:21.240Z,11.40
2019-01-11T17:35:50.080Z,9.78
2019-01-11T17:38:19.064Z,8.35
2019-01-11T17:40:48.105Z,11.28
2019-01-11T17:43:17.355Z,10.40
2019-01-11T17:45:46.443Z,12.58
2019-01-11T17:48:15.425Z,13.18
2019-01-11T17:50:44.431Z,9.83
2019-01-11T17:53:13.362Z,10.82
2019-01-11T17:55:42.213Z,10.58
2019-01-11T17:58:11.045Z,9.50
2019-01-11T18:00:41.559Z,9.98
2019-01-11T18:03:10.548Z,9.63
2019-01-11T18:05:39.742Z,9.60
2019-01-11T18:08:11.053Z,9.93
2019-01-11T18:10:42.379Z,10.35
2019-01-11T18:13:11.322Z,7.37
2019-01-11T18:15:40.272Z,9.88
2019-01-11T18:18:09.293Z,7.62
2019-01-11T18:20:38.921Z,7.90
2019-01-11T18:23:07.876Z,8.23
2019-01-11T18:25:36.791Z,7.85
2019-01-11T18:28:05.801Z,7.50
2019-01-11T18:30:34.761Z,7.87
2019-01-11T18:33:03.812Z,6.72
2019-01-11T18:35:32.681Z,7.20
2019-01-11T18:38:01.841Z,5.60
2019-01-11T18:40:30.779Z,6.70
2019-01-11T18:42:59.877Z,6.30
2019-01-11T18:45:29.111Z,5.90
2019-01-11T18:47:58.156Z,5.78
2019-01-11T18:50:27.525Z,5.75
2019-01-11T18:52:56.338Z,6.00
2019-01-11T18:55:25.237Z,5.20
2019-01-11T18:57:54.123Z,5.90
2019-01-11T19:00:24.338Z,5.40
2019-01-11T19:02:53.213Z,5.40
2019-01-11T19:05:22.067Z,6.08
2019-01-11T19:07:51.064Z,5.50
2019-01-11T19:10:20.463Z,5.33
2019-01-11T19:12:49.543Z,6.10
2019-01-11T19:15:21.244Z,6.20
2019-01-11T19:17:51.960Z,6.58
2019-01-11T19:20:29.004Z,6.00
2019-01-11T19:22:58.802Z,6.45
2019-01-11T19:25:27.825Z,5.95
2019-01-11T19:27:56.734Z,6.05
2019-01-11T19:30:27.608Z,5.08
2019-01-11T19:32:56.743Z,6.05
2019-01-11T19:35:25.654Z,6.50
2019-01-11T19:37:54.781Z,5.03
2019-01-11T19:40:23.751Z,6.50
2019-01-11T19:42:55.696Z,5.73
2019-01-11T19:45:24.638Z,6.00
2019-01-11T19:47:53.673Z,6.33
2019-01-11T19:50:25.259Z,5.70
2019-01-11T19:52:54.177Z,6.65
2019-01-11T19:55:26.166Z,5.50
2019-01-11T19:57:55.195Z,6.12
2019-01-11T20:00:26.252Z,5.80
2019-01-11T20:02:55.467Z,6.08
2019-01-11T20:05:25.282Z,6.10
2019-01-11T20:07:54.740Z,5.90
2019-01-11T20:10:34.403Z,5.17
2019-01-11T20:13:03.384Z,5.25
2019-01-11T20:15:33.955Z,4.72
2019-01-11T20:18:03.710Z,5.60
2019-01-11T20:20:32.728Z,4.60
2019-01-11T20:23:02.481Z,5.20
2019-01-11T20:25:31.886Z,6.10
2019-01-11T20:28:00.914Z,5.62
2019-01-11T20:30:30.361Z,6.35
2019-01-11T20:32:59.423Z,6.35
2019-01-11T20:35:34.582Z,6.25
2019-01-11T20:38:03.586Z,6.80
2019-01-11T20:40:32.938Z,6.90
2019-01-11T20:43:03.538Z,6.70
2019-01-11T20:45:32.447Z,9.20
2019-01-11T20:48:01.345Z,7.35
2019-01-11T20:50:30.248Z,5.33
2019-01-11T20:52:59.230Z,6.50
2019-01-11T20:55:28.102Z,6.40
2019-01-11T20:57:57.256Z,5.50
2019-01-11T21:00:35.838Z,8.15
2019-01-11T21:03:06.966Z,6.10
2019-01-11T21:05:35.953Z,6.97
2019-01-11T21:08:05.153Z,6.67
2019-01-11T21:10:34.129Z,6.35
2019-01-11T21:13:03.080Z,6.45
2019-01-11T21:15:31.952Z,6.87
2019-01-11T21:18:01.195Z,6.70
2019-01-11T21:20:30.354Z,7.58
2019-01-11T21:22:59.265Z,8.35
2019-01-11T21:25:28.046Z,6.37
2019-01-11T21:27:58.610Z,7.75
2019-01-11T21:30:37.351Z,9.25
2019-01-11T21:33:06.492Z,8.18
2019-01-11T21:35:35.808Z,8.18
2019-01-11T21:38:07.560Z,7.60
2019-01-11T21:40:36.716Z,7.87
2019-01-11T21:43:05.680Z,8.23
2019-01-11T21:45:34.635Z,8.78
2019-01-11T21:48:05.960Z,8.38
2019-01-11T21:50:34.744Z,6.80
2019-01-11T21:53:03.988Z,8.88
2019-01-11T21:55:32.882Z,9.80
2019-01-11T21:58:01.823Z,8.83
2019-01-11T22:00:33.668Z,8.58
2019-01-11T22:03:02.480Z,7.87
2019-01-11T22:05:31.573Z,8.73
2019-01-11T22:08:00.513Z,8.23
2019-01-11T22:10:29.542Z,8.38
2019-01-11T22:12:58.425Z,8.63
2019-01-11T22:15:27.413Z,7.70
2019-01-11T22:17:56.267Z,9.65
2019-01-11T22:20:25.292Z,8.33
2019-01-11T22:22:54.200Z,8.68
2019-01-11T22:25:23.191Z,9.65
2019-01-11T22:27:52.102Z,8.53
2019-01-11T22:30:22.342Z,9.35
2019-01-11T22:32:51.314Z,8.90
2019-01-11T22:35:20.385Z,8.68
2019-01-11T22:37:49.412Z,11.85
2019-01-11T22:40:20.264Z,10.25
2019-01-11T22:42:51.216Z,10.72
2019-01-11T22:45:20.220Z,9.50
2019-01-11T22:47:49.044Z,10.00
2019-01-11T22:50:18.099Z,8.35
2019-01-11T22:52:47.005Z,10.53
2019-01-11T22:55:16.533Z,10.28
2019-01-11T22:57:45.341Z,7.78
2019-01-11T23:01:03.311Z,10.75
2019-01-11T23:03:42.671Z,10.40
2019-01-11T23:06:40.268Z,10.28
2019-01-11T23:09:13.370Z,9.70
2019-01-11T23:11:57.523Z,9.00
2019-01-11T23:14:26.500Z,9.18
2019-01-11T23:17:31.707Z,10.80
2019-01-11T23:19:57.967Z,11.05
2019-01-11T23:22:27.211Z,11.05
2019-01-11T23:24:56.095Z,11.20
2019-01-11T23:27:27.124Z,10.30
2019-01-11T23:29:58.377Z,11.65
2019-01-11T23:32:27.366Z,11.00
2019-01-11T23:34:56.657Z,11.40
2019-01-11T23:37:25.588Z,10.67
2019-01-11T23:40:01.008Z,9.67
2019-01-11T23:42:29.927Z,11.75
2019-01-11T23:45:04.081Z,12.93
2019-01-11T23:47:44.961Z,11.87
2019-01-11T23:50:16.642Z,10.48
2019-01-11T23:52:45.716Z,12.28
2019-01-11T23:55:14.995Z,11.33
2019-01-11T23:57:46.527Z,13.00
